createdAt,value
2023-04-08T00:00:35.104Z,1.50
2023-04-08T00:03:58.402Z,1.75
2023-04-08T00:07:20.382Z,1.75
2023-04-08T00:10:42.099Z,1.20
2023-04-08T00:14:05.268Z,1.27
2023-04-08T00:17:27.229Z,1.58
2023-04-08T00:20:50.700Z,1.27
2023-04-08T00:24:12.542Z,1.20
2023-04-08T00:27:34.516Z,1.60
2023-04-08T00:30:56.397Z,1.80
2023-04-08T00:34:18.284Z,2.42
2023-04-08T00:37:42.043Z,1.88
2023-04-08T00:41:04.152Z,1.83
2023-04-08T00:44:25.986Z,2.67
2023-04-08T00:47:52.898Z,1.25
2023-04-08T00:51:15.128Z,1.08
2023-04-08T00:54:39.355Z,0.90
2023-04-08T00:58:01.743Z,1.08
2023-04-08T01:01:31.190Z,1.50
2023-04-08T01:05:01.317Z,1.25
2023-04-08T01:08:25.711Z,1.50
2023-04-08T01:11:52.604Z,1.35
2023-04-08T01:15:14.756Z,1.15
2023-04-08T01:18:38.247Z,1.10
2023-04-08T01:22:06.910Z,2.70
2023-04-08T01:25:32.757Z,2.05
2023-04-08T01:28:59.152Z,1.35
2023-04-08T01:32:21.926Z,1.30
2023-04-08T01:35:44.262Z,1.05
2023-04-08T01:39:08.018Z,1.23
2023-04-08T01:42:31.774Z,1.55
2023-04-08T01:45:58.570Z,0.90
2023-04-08T01:49:21.088Z,1.15
2023-04-08T01:52:44.861Z,1.23
2023-04-08T01:56:09.256Z,1.35
2023-04-08T01:59:36.017Z,1.35
2023-04-08T02:03:00.870Z,1.45
2023-04-08T02:06:22.904Z,1.77
2023-04-08T02:09:44.911Z,3.00
2023-04-08T02:13:06.991Z,3.55
2023-04-08T02:16:35.708Z,2.53
2023-04-08T02:20:04.796Z,1.42
2023-04-08T02:23:29.604Z,1.20
2023-04-08T02:26:52.367Z,1.15
2023-04-08T02:30:15.938Z,1.73
2023-04-08T02:33:40.492Z,1.40
2023-04-08T02:37:03.960Z,1.50
2023-04-08T02:40:27.478Z,1.98
2023-04-08T02:43:49.527Z,2.38
2023-04-08T02:47:11.131Z,2.60
2023-04-08T02:50:33.339Z,1.83
2023-04-08T02:53:56.630Z,2.45
2023-04-08T02:57:18.289Z,2.15
2023-04-08T03:00:40.101Z,1.00
2023-04-08T03:04:02.088Z,1.05
2023-04-08T03:07:24.239Z,1.58
2023-04-08T03:10:47.663Z,0.98
2023-04-08T03:14:09.477Z,0.80
2023-04-08T03:17:33.971Z,1.10
2023-04-08T03:20:56.223Z,1.00
2023-04-08T03:24:18.146Z,1.38
2023-04-08T03:27:41.489Z,1.40
2023-04-08T03:31:06.037Z,3.08
2023-04-08T03:34:27.748Z,2.65
2023-04-08T03:37:49.930Z,3.10
2023-04-08T03:41:12.870Z,2.25
2023-04-08T03:44:36.921Z,1.77
2023-04-08T03:47:58.930Z,1.70
2023-04-08T03:51:20.706Z,1.40
2023-04-08T03:54:42.506Z,1.30
2023-04-08T03:58:04.258Z,1.30
2023-04-08T04:01:27.626Z,1.27
2023-04-08T04:04:49.945Z,1.23
2023-04-08T04:08:11.733Z,1.67
2023-04-08T04:11:35.527Z,1.90
2023-04-08T04:14:57.406Z,2.10
2023-04-08T04:18:20.562Z,2.00
2023-04-08T04:21:42.095Z,1.70
2023-04-08T04:25:04.364Z,2.17
2023-04-08T04:28:26.642Z,1.70
2023-04-08T04:31:48.525Z,1.85
2023-04-08T04:35:12.093Z,1.52
2023-04-08T04:38:34.091Z,3.53
2023-04-08T04:41:56.174Z,2.13
2023-04-08T04:45:18.084Z,2.25
2023-04-08T04:48:39.890Z,1.73
2023-04-08T04:52:03.382Z,2.10
2023-04-08T04:55:25.931Z,2.63
2023-04-08T04:58:48.262Z,1.80
2023-04-08T05:02:10.743Z,1.77
2023-04-08T05:05:32.638Z,3.63
2023-04-08T05:08:56.046Z,2.25
2023-04-08T05:12:17.777Z,2.13
2023-04-08T05:15:39.567Z,3.50
2023-04-08T05:19:01.409Z,2.75
2023-04-08T05:22:23.111Z,3.25
2023-04-08T05:25:46.437Z,2.70
2023-04-08T05:29:08.088Z,2.00
2023-04-08T05:32:30.976Z,2.35
2023-04-08T05:35:53.183Z,1.80
2023-04-08T05:39:14.943Z,1.50
2023-04-08T05:42:38.050Z,2.55
2023-04-08T05:46:00.161Z,2.85
2023-04-08T05:49:21.931Z,2.33
2023-04-08T05:52:45.268Z,1.95
2023-04-08T05:56:07.732Z,2.25
2023-04-08T05:59:33.666Z,2.20
2023-04-08T06:02:55.847Z,2.25
2023-04-08T06:06:17.917Z,2.53
2023-04-08T06:09:39.707Z,2.03
2023-04-08T06:13:01.843Z,2.38
2023-04-08T06:16:25.013Z,2.92
2023-04-08T06:19:47.147Z,2.08
2023-04-08T06:23:09.612Z,1.98
2023-04-08T06:26:31.980Z,2.22
2023-04-08T06:29:55.456Z,1.70
2023-04-08T06:33:20.574Z,1.40
2023-04-08T06:36:42.699Z,2.42
2023-04-08T06:40:05.078Z,2.05
2023-04-08T06:43:27.641Z,1.45
2023-04-08T06:46:49.797Z,1.58
2023-04-08T06:50:13.081Z,1.65
2023-04-08T06:53:35.196Z,1.20
2023-04-08T06:56:58.614Z,1.67
2023-04-08T07:00:20.768Z,1.55
2023-04-08T07:03:42.947Z,1.13
2023-04-08T07:07:06.393Z,0.80
2023-04-08T07:10:29.916Z,1.20
2023-04-08T07:13:52.629Z,1.55
2023-04-08T07:17:15.106Z,0.93
2023-04-08T07:20:38.637Z,1.58
2023-04-08T07:24:02.127Z,1.90
2023-04-08T07:27:24.499Z,1.23
2023-04-08T07:30:46.210Z,1.20
2023-04-08T07:34:07.936Z,0.65
2023-04-08T07:37:29.976Z,0.90
2023-04-08T07:40:53.230Z,0.90
2023-04-08T07:44:17.391Z,1.20
2023-04-08T07:47:39.653Z,0.93
2023-04-08T07:51:09.639Z,0.95
2023-04-08T07:54:34.355Z,1.80
2023-04-08T07:57:57.461Z,1.17
2023-04-08T08:01:21.329Z,3.17
2023-04-08T08:04:43.314Z,2.30
2023-04-08T08:08:07.738Z,1.23
2023-04-08T08:11:29.970Z,0.90
2023-04-08T08:14:54.989Z,4.50
2023-04-08T08:18:16.829Z,1.95
2023-04-08T08:21:39.637Z,1.65
2023-04-08T08:25:01.624Z,5.35
2023-04-08T08:28:23.638Z,1.90
2023-04-08T08:31:48.644Z,1.38
2023-04-08T08:35:11.163Z,4.30
2023-04-08T08:38:33.637Z,1.90
2023-04-08T08:41:57.026Z,1.40
2023-04-08T08:45:20.639Z,1.23
2023-04-08T08:48:44.587Z,1.00
2023-04-08T08:52:07.166Z,0.85
2023-04-08T08:55:53.213Z,7.55
2023-04-08T08:59:14.336Z,1.60
2023-04-08T09:02:38.888Z,1.30
2023-04-08T09:06:04.047Z,0.80
2023-04-08T09:09:27.275Z,0.75
2023-04-08T09:12:57.060Z,0.70
2023-04-08T09:16:23.471Z,0.73
2023-04-08T09:20:09.850Z,0.70
2023-04-08T09:23:52.919Z,0.70
2023-04-08T09:27:15.225Z,1.42
2023-04-08T09:30:37.072Z,1.40
2023-04-08T09:34:00.897Z,1.30
2023-04-08T09:37:22.905Z,0.80
2023-04-08T09:40:46.693Z,0.95
2023-04-08T09:44:10.613Z,0.98
2023-04-08T09:47:38.669Z,1.30
2023-04-08T09:51:01.378Z,0.90
2023-04-08T09:54:25.815Z,0.80
2023-04-08T09:57:54.162Z,0.63
2023-04-08T10:01:18.398Z,1.10
2023-04-08T10:04:43.832Z,0.90
2023-04-08T10:08:07.141Z,0.90
2023-04-08T10:11:29.158Z,1.10
2023-04-08T10:15:25.522Z,0.77
2023-04-08T10:18:47.617Z,0.95
2023-04-08T10:22:43.806Z,7.00
2023-04-08T10:26:33.298Z,2.08
2023-04-08T10:29:55.043Z,2.03
2023-04-08T10:33:20.278Z,1.45
2023-04-08T10:36:41.987Z,0.80
2023-04-08T10:40:06.780Z,3.00
2023-04-08T10:43:34.216Z,1.52
2023-04-08T10:46:56.656Z,2.00
2023-04-08T10:50:23.724Z,2.60
2023-04-08T10:53:45.686Z,1.00
2023-04-08T10:57:08.275Z,1.92
2023-04-08T11:00:35.582Z,1.20
2023-04-08T11:03:57.832Z,0.90
2023-04-08T11:07:23.180Z,0.80
2023-04-08T11:10:45.601Z,1.00
2023-04-08T11:14:08.295Z,3.58
2023-04-08T11:17:30.361Z,2.80
2023-04-08T11:20:52.441Z,2.30
2023-04-08T11:24:16.864Z,0.80
2023-04-08T11:27:40.050Z,1.33
2023-04-08T11:31:03.079Z,0.80
2023-04-08T11:34:26.403Z,1.52
2023-04-08T11:37:49.875Z,0.80
2023-04-08T11:41:13.336Z,0.75
2023-04-08T11:44:35.425Z,0.75
2023-04-08T11:47:57.366Z,1.00
2023-04-08T11:51:19.099Z,0.73
2023-04-08T11:54:43.521Z,0.70
2023-04-08T11:58:07.753Z,15.60
2023-04-08T12:01:29.848Z,2.20
2023-04-08T12:04:52.587Z,1.45
2023-04-08T12:08:14.656Z,1.27
2023-04-08T12:11:36.824Z,1.17
2023-04-08T12:15:00.270Z,0.90
2023-04-08T12:18:22.938Z,1.20
2023-04-08T12:21:45.094Z,1.10
2023-04-08T12:25:07.873Z,0.80
2023-04-08T12:28:29.925Z,1.00
2023-04-08T12:31:53.476Z,1.38
2023-04-08T12:35:16.377Z,1.27
2023-04-08T12:38:38.507Z,1.52
2023-04-08T12:42:00.676Z,1.33
2023-04-08T12:45:22.920Z,1.80
2023-04-08T12:48:47.595Z,1.02
2023-04-08T12:52:09.726Z,1.40
2023-04-08T12:55:31.545Z,0.90
2023-04-08T12:58:53.345Z,1.40
2023-04-08T13:02:15.506Z,1.27
2023-04-08T13:05:43.381Z,1.23
2023-04-08T13:09:05.856Z,1.77
2023-04-08T13:12:28.250Z,1.17
2023-04-08T13:15:50.336Z,0.90
2023-04-08T13:19:12.493Z,0.50
2023-04-08T13:22:36.046Z,0.47
2023-04-08T13:25:57.860Z,1.67
2023-04-08T13:29:20.025Z,1.42
2023-04-08T13:32:42.244Z,0.80
2023-04-08T13:36:04.011Z,0.85
2023-04-08T13:39:27.341Z,0.80
2023-04-08T13:42:49.299Z,0.70
2023-04-08T13:46:11.446Z,1.20
2023-04-08T13:49:33.192Z,0.95
2023-04-08T13:52:55.227Z,1.20
2023-04-08T13:56:18.751Z,1.13
2023-04-08T13:59:43.252Z,0.95
2023-04-08T14:03:06.310Z,1.15
2023-04-08T14:06:28.117Z,1.60
2023-04-08T14:09:50.150Z,1.25
2023-04-08T14:13:13.481Z,2.13
2023-04-08T14:16:36.182Z,1.08
2023-04-08T14:19:59.678Z,1.02
2023-04-08T14:23:21.489Z,2.92
2023-04-08T14:26:43.552Z,1.80
2023-04-08T14:30:08.676Z,5.35
2023-04-08T14:33:30.958Z,2.47
2023-04-08T14:36:52.940Z,1.48
2023-04-08T14:40:15.034Z,3.03
2023-04-08T14:43:37.747Z,2.20
2023-04-08T14:47:01.033Z,4.90
2023-04-08T14:50:23.188Z,3.78
2023-04-08T14:53:45.264Z,1.60
2023-04-08T14:57:07.486Z,1.42
2023-04-08T15:00:29.558Z,2.65
2023-04-08T15:03:52.882Z,1.63
2023-04-08T15:07:14.825Z,2.72
2023-04-08T15:10:37.006Z,0.90
2023-04-08T15:13:58.728Z,1.60
2023-04-08T15:17:20.495Z,1.88
2023-04-08T15:20:43.843Z,1.40
2023-04-08T15:24:05.728Z,1.30
2023-04-08T15:27:30.021Z,1.80
2023-04-08T15:30:51.815Z,2.10
2023-04-08T15:34:13.778Z,2.90
2023-04-08T15:37:37.325Z,1.83
2023-04-08T15:40:59.260Z,1.20
2023-04-08T15:44:22.628Z,1.70
2023-04-08T15:47:44.459Z,1.30
2023-04-08T15:51:08.861Z,1.05
2023-04-08T15:54:32.796Z,1.40
2023-04-08T15:57:56.977Z,7.72
2023-04-08T16:01:18.996Z,8.65
2023-04-08T16:04:41.039Z,4.72
2023-04-08T16:08:04.648Z,10.80
2023-04-08T16:11:29.024Z,8.13
2023-04-08T16:14:51.224Z,6.30
2023-04-08T16:18:13.616Z,6.40
2023-04-08T16:21:36.166Z,2.60
2023-04-08T16:24:59.014Z,2.80
2023-04-08T16:28:23.507Z,3.17
2023-04-08T16:31:45.592Z,2.63
2023-04-08T16:35:08.438Z,5.75
2023-04-08T16:38:31.016Z,10.85
2023-04-08T16:41:53.456Z,4.22
2023-04-08T16:45:17.383Z,5.10
2023-04-08T16:48:41.356Z,13.75
2023-04-08T16:52:03.552Z,10.82
2023-04-08T16:55:26.027Z,11.25
2023-04-08T16:58:48.054Z,10.00
2023-04-08T17:02:11.524Z,14.60
2023-04-08T17:05:33.899Z,8.35
2023-04-08T17:08:56.762Z,11.57
2023-04-08T17:12:18.908Z,16.70
2023-04-08T17:15:40.738Z,10.70
2023-04-08T17:19:04.110Z,6.20
2023-04-08T17:22:26.674Z,4.65
2023-04-08T17:25:48.573Z,4.15
2023-04-08T17:29:10.426Z,4.60
2023-04-08T17:32:32.332Z,5.25
2023-04-08T17:35:56.065Z,12.50
2023-04-08T17:39:18.697Z,24.08
2023-04-08T17:42:40.573Z,21.80
2023-04-08T17:46:04.043Z,36.78
2023-04-08T17:49:26.309Z,8.23
2023-04-08T17:52:49.596Z,4.75
2023-04-08T17:56:12.037Z,5.20
2023-04-08T17:59:34.331Z,3.42
2023-04-08T18:02:56.260Z,4.65
2023-04-08T18:06:19.103Z,8.63
2023-04-08T18:09:42.782Z,3.80
2023-04-08T18:16:29.560Z,6.28
2023-04-08T18:19:51.809Z,3.15
2023-04-08T18:23:13.601Z,3.53
2023-04-08T18:26:37.415Z,6.57
2023-04-08T18:29:59.238Z,4.75
2023-04-08T18:33:21.802Z,2.60
2023-04-08T18:36:43.938Z,3.40
2023-04-08T18:40:07.499Z,5.03
2023-04-08T18:43:31.003Z,4.63
2023-04-08T18:46:53.022Z,5.30
2023-04-08T18:50:14.798Z,3.85
2023-04-08T18:53:37.430Z,5.15
2023-04-08T18:56:59.775Z,4.90
2023-04-08T19:00:23.679Z,4.45
2023-04-08T19:03:46.000Z,2.35
2023-04-08T19:07:07.958Z,1.80
2023-04-08T19:10:31.195Z,2.53
2023-04-08T19:13:53.539Z,2.65
2023-04-08T19:17:16.805Z,2.13
2023-04-08T19:20:39.467Z,2.38
2023-04-08T19:24:01.521Z,2.17
2023-04-08T19:27:23.300Z,5.05
2023-04-08T19:30:45.237Z,3.65
2023-04-08T19:34:08.624Z,2.95
2023-04-08T19:37:30.586Z,2.00
2023-04-08T19:40:52.629Z,2.38
2023-04-08T19:44:14.615Z,2.22
2023-04-08T19:47:36.676Z,2.10
2023-04-08T19:51:00.337Z,5.88
2023-04-08T19:54:23.090Z,2.65
2023-04-08T19:57:45.136Z,1.73
2023-04-08T20:01:07.564Z,2.00
2023-04-08T20:04:29.550Z,3.00
2023-04-08T20:07:52.913Z,3.58
2023-04-08T20:11:15.165Z,3.30
2023-04-08T20:14:40.597Z,2.95
2023-04-08T20:18:02.502Z,2.03
2023-04-08T20:21:24.465Z,1.63
2023-04-08T20:24:48.253Z,3.22
2023-04-08T20:28:10.184Z,2.55
2023-04-08T20:31:33.219Z,2.65
2023-04-08T20:34:55.817Z,2.60
2023-04-08T20:38:18.083Z,2.28
2023-04-08T20:41:42.591Z,3.42
2023-04-08T20:45:05.207Z,3.08
2023-04-08T20:48:27.213Z,2.60
2023-04-08T20:51:49.162Z,3.15
2023-04-08T20:55:11.460Z,2.17
2023-04-08T20:58:35.071Z,1.92
2023-04-08T21:01:57.091Z,2.95
2023-04-08T21:05:19.171Z,2.50
2023-04-08T21:08:41.540Z,2.08
2023-04-08T21:12:03.295Z,1.90
2023-04-08T21:15:26.661Z,6.47
2023-04-08T21:18:48.627Z,2.50
2023-04-08T21:22:10.489Z,2.30
2023-04-08T21:25:33.066Z,2.40
2023-04-08T21:28:55.116Z,2.50
2023-04-08T21:32:18.218Z,2.97
2023-04-08T21:35:40.461Z,3.67
2023-04-08T21:39:02.644Z,3.63
2023-04-08T21:42:25.284Z,7.65
2023-04-08T21:45:47.217Z,2.28
2023-04-08T21:49:11.411Z,3.78
2023-04-08T21:52:33.588Z,3.05
2023-04-08T21:55:55.802Z,2.25
2023-04-08T21:59:18.754Z,2.17
2023-04-08T22:02:41.670Z,3.70
2023-04-08T22:06:05.545Z,7.75
2023-04-08T22:09:27.872Z,2.97
2023-04-08T22:12:49.634Z,3.35
2023-04-08T22:16:11.739Z,2.97
2023-04-08T22:19:33.874Z,2.55
2023-04-08T22:22:57.201Z,2.35
2023-04-08T22:26:19.048Z,2.13
2023-04-08T22:29:40.825Z,2.63
2023-04-08T22:33:03.791Z,8.85
2023-04-08T22:36:25.864Z,4.40
2023-04-08T22:39:49.407Z,3.35
2023-04-08T22:43:11.521Z,3.13
2023-04-08T22:46:33.271Z,2.45
2023-04-08T22:49:55.011Z,2.50
2023-04-08T22:53:17.133Z,2.22
2023-04-08T22:56:40.285Z,2.38
2023-04-08T23:00:04.042Z,2.05
2023-04-08T23:03:26.564Z,19.45
2023-04-08T23:06:48.236Z,5.82
2023-04-08T23:10:11.167Z,3.38
2023-04-08T23:13:34.423Z,1.98
2023-04-08T23:16:56.853Z,2.08
2023-04-08T23:20:18.657Z,2.20
2023-04-08T23:23:40.568Z,2.88
2023-04-08T23:27:02.628Z,2.25
2023-04-08T23:30:26.235Z,3.67
2023-04-08T23:33:47.839Z,2.60
2023-04-08T23:37:09.736Z,1.85
2023-04-08T23:40:32.301Z,1.75
2023-04-08T23:43:54.373Z,1.83
2023-04-08T23:47:17.540Z,1.48
2023-04-08T23:50:39.586Z,1.42
2023-04-08T23:54:01.392Z,6.07
2023-04-08T23:57:23.360Z,2.70
